createdAt,value
2022-09-12T00:01:25.559Z,85.02
2022-09-12T00:03:55.044Z,85.48
2022-09-12T00:06:26.598Z,85.73
2022-09-12T00:08:58.541Z,85.93
2022-09-12T00:11:28.037Z,86.14
2022-09-12T00:14:01.448Z,86.26
2022-09-12T00:16:33.371Z,86.44
2022-09-12T00:19:02.382Z,86.75
2022-09-12T00:21:31.468Z,86.78
2022-09-12T00:23:59.539Z,86.48
2022-09-12T00:26:27.766Z,85.57
2022-09-12T00:28:56.030Z,84.31
2022-09-12T00:31:26.391Z,84.12
2022-09-12T00:34:00.651Z,84.25
2022-09-12T00:36:31.581Z,83.95
2022-09-12T00:39:00.004Z,83.89
2022-09-12T00:41:31.347Z,83.19
2022-09-12T00:44:02.183Z,81.57
2022-09-12T00:46:38.745Z,80.94
2022-09-12T00:49:16.761Z,81.65
2022-09-12T00:51:50.723Z,82.32
2022-09-12T00:54:25.167Z,82.65
2022-09-12T00:56:58.921Z,82.95
2022-09-12T00:59:33.347Z,83.41
2022-09-12T01:02:01.763Z,83.32
2022-09-12T01:04:32.095Z,83.73
2022-09-12T01:07:00.560Z,84.01
2022-09-12T01:09:28.691Z,84.46
2022-09-12T01:11:57.554Z,84.78
2022-09-12T01:14:26.144Z,85.15
2022-09-12T01:16:54.277Z,85.64
2022-09-12T01:20:26.592Z,85.64
2022-09-12T01:23:49.664Z,85.95
2022-09-12T01:26:58.289Z,85.63
2022-09-12T01:29:51.819Z,85.33
2022-09-12T01:32:33.195Z,84.62
2022-09-12T01:35:16.754Z,83.92
2022-09-12T01:37:56.531Z,83.86
2022-09-12T01:40:34.506Z,84.14
2022-09-12T01:43:18.402Z,84.44
2022-09-12T01:45:57.268Z,84.09
2022-09-12T01:48:35.767Z,84.50
2022-09-12T01:51:14.196Z,84.45
2022-09-12T01:53:49.103Z,84.23
2022-09-12T01:56:22.676Z,84.35
2022-09-12T01:58:56.984Z,84.65
2022-09-12T02:01:30.476Z,84.46
2022-09-12T02:04:10.243Z,84.44
2022-09-12T02:06:47.874Z,84.83
2022-09-12T02:09:24.266Z,85.54
2022-09-12T02:11:59.614Z,85.79
2022-09-12T02:14:33.059Z,86.19
2022-09-12T02:17:10.676Z,86.44
2022-09-12T02:19:47.098Z,86.83
2022-09-12T02:22:20.889Z,86.97
2022-09-12T02:24:56.821Z,87.19
2022-09-12T02:27:31.396Z,87.51
2022-09-12T02:29:59.824Z,87.82
2022-09-12T02:32:38.077Z,88.26
2022-09-12T02:35:15.928Z,88.71
2022-09-12T02:37:58.626Z,89.15
2022-09-12T02:40:27.125Z,89.16
2022-09-12T02:42:55.188Z,89.25
2022-09-12T02:45:23.788Z,89.50
2022-09-12T02:47:59.630Z,89.52
2022-09-12T02:50:30.160Z,89.36
2022-09-12T02:53:02.144Z,89.43
2022-09-12T02:55:31.079Z,89.48
2022-09-12T02:57:59.335Z,89.57
2022-09-12T03:00:29.881Z,89.20
2022-09-12T03:03:27.249Z,89.31
2022-09-12T03:06:01.986Z,89.61
2022-09-12T03:09:06.089Z,90.03
2022-09-12T03:12:03.878Z,90.27
2022-09-12T03:15:16.321Z,90.24
2022-09-12T03:18:04.575Z,90.00
2022-09-12T03:20:47.265Z,90.01
2022-09-12T03:23:27.184Z,90.19
2022-09-12T03:26:02.172Z,90.29
2022-09-12T03:28:33.748Z,90.30
2022-09-12T03:31:02.041Z,90.75
2022-09-12T03:33:31.220Z,91.23
2022-09-12T03:35:59.374Z,91.32
2022-09-12T03:38:28.771Z,91.60
2022-09-12T03:40:56.779Z,91.10
2022-09-12T03:43:24.813Z,90.37
2022-09-12T03:45:53.314Z,90.26
2022-09-12T03:48:21.439Z,90.46
2022-09-12T03:50:49.452Z,90.44
2022-09-12T03:53:17.641Z,90.21
2022-09-12T03:55:47.114Z,90.18
2022-09-12T03:58:15.067Z,90.20
2022-09-12T04:00:44.266Z,90.05
2022-09-12T04:03:12.280Z,90.38
2022-09-12T04:05:40.343Z,90.64
2022-09-12T04:08:08.334Z,90.98
2022-09-12T04:10:36.359Z,91.31
2022-09-12T04:13:05.780Z,91.44
2022-09-12T04:15:33.804Z,91.42
2022-09-12T04:18:05.790Z,91.70
2022-09-12T04:20:34.326Z,91.72
2022-09-12T04:23:02.365Z,91.64
2022-09-12T04:25:31.365Z,91.63
2022-09-12T04:27:59.380Z,91.89
2022-09-12T04:30:28.792Z,91.96
2022-09-12T04:32:56.841Z,92.17
2022-09-12T04:35:24.815Z,91.85
2022-09-12T04:37:53.060Z,91.48
2022-09-12T04:40:21.208Z,91.17
2022-09-12T04:42:49.203Z,90.42
2022-09-12T04:45:17.382Z,90.07
2022-09-12T04:47:47.323Z,90.00
2022-09-12T04:50:15.480Z,89.88
2022-09-12T04:52:43.762Z,89.50
2022-09-12T04:55:11.759Z,89.11
2022-09-12T04:57:39.996Z,89.01
2022-09-12T05:00:10.681Z,89.25
2022-09-12T05:02:38.666Z,89.10
2022-09-12T05:05:09.858Z,88.43
2022-09-12T05:07:38.106Z,88.38
2022-09-12T05:10:07.016Z,88.40
2022-09-12T05:12:35.827Z,88.36
2022-09-12T05:15:04.645Z,88.85
2022-09-12T05:17:32.830Z,88.75
2022-09-12T05:20:01.663Z,88.87
2022-09-12T05:22:30.984Z,88.81
2022-09-12T05:24:59.005Z,89.02
2022-09-12T05:27:26.974Z,89.09
2022-09-12T05:29:55.199Z,88.38
2022-09-12T05:32:23.219Z,87.65
2022-09-12T05:34:51.185Z,86.68
2022-09-12T05:37:19.172Z,86.25
2022-09-12T05:39:48.632Z,86.09
2022-09-12T05:42:16.707Z,85.25
2022-09-12T05:44:44.689Z,84.97
2022-09-12T05:47:13.461Z,84.63
2022-09-12T05:49:41.585Z,85.00
2022-09-12T05:52:09.567Z,84.10
2022-09-12T05:54:37.559Z,80.45
2022-09-12T05:57:07.108Z,78.99
2022-09-12T05:59:35.149Z,77.74
2022-09-12T06:02:03.227Z,77.07
2022-09-12T06:04:31.245Z,76.60
2022-09-12T06:06:59.242Z,74.68
2022-09-12T06:09:28.026Z,75.77
2022-09-12T06:11:56.028Z,75.33
2022-09-12T06:14:25.344Z,74.58
2022-09-12T06:16:53.508Z,75.28
2022-09-12T06:19:25.033Z,74.17
2022-09-12T06:21:53.383Z,74.52
2022-09-12T06:24:22.694Z,75.90
2022-09-12T06:26:52.598Z,76.22
2022-09-12T06:29:21.154Z,76.32
2022-09-12T06:31:50.524Z,76.54
2022-09-12T06:34:19.554Z,75.05
2022-09-12T06:36:50.339Z,75.90
2022-09-12T06:39:21.458Z,76.07
2022-09-12T06:41:51.677Z,75.61
2022-09-12T06:44:22.414Z,75.11
2022-09-12T06:46:53.629Z,73.92
2022-09-12T06:49:21.609Z,74.19
2022-09-12T06:51:49.609Z,73.42
2022-09-12T06:54:18.180Z,74.03
2022-09-12T06:56:46.354Z,74.36
2022-09-12T06:59:14.545Z,72.98
2022-09-12T07:01:42.818Z,73.36
2022-09-12T07:04:12.604Z,72.10
2022-09-12T07:06:44.554Z,72.29
2022-09-12T07:09:16.954Z,72.15
2022-09-12T07:11:47.232Z,71.79
2022-09-12T07:14:16.812Z,72.43
2022-09-12T07:16:45.139Z,72.70
2022-09-12T07:19:14.618Z,72.13
2022-09-12T07:21:42.595Z,71.42
2022-09-12T07:24:11.710Z,72.08
2022-09-12T07:26:41.990Z,72.00
2022-09-12T07:32:05.805Z,70.78
2022-09-12T07:34:36.183Z,70.85
2022-09-12T07:37:04.659Z,69.90
2022-09-12T07:39:32.633Z,68.35
2022-09-12T07:42:01.357Z,68.66
2022-09-12T07:44:29.399Z,68.03
2022-09-12T07:46:57.397Z,68.00
2022-09-12T07:49:25.411Z,68.16
2022-09-12T07:51:55.123Z,67.11
2022-09-12T07:54:23.354Z,67.31
2022-09-12T07:56:51.669Z,67.93
2022-09-12T07:59:41.397Z,68.30
2022-09-12T08:02:16.068Z,68.47
2022-09-12T08:04:44.989Z,68.29
2022-09-12T08:07:14.374Z,67.30
2022-09-12T08:09:42.395Z,67.24
2022-09-12T08:12:10.376Z,68.30
2022-09-12T08:14:38.370Z,68.50
2022-09-12T08:17:06.642Z,68.23
2022-09-12T08:19:34.751Z,68.06
2022-09-12T08:22:03.089Z,67.75
2022-09-12T08:24:33.594Z,67.54
2022-09-12T08:27:01.561Z,67.54
2022-09-12T08:29:29.552Z,67.26
2022-09-12T08:31:57.566Z,66.66
2022-09-12T08:34:26.174Z,66.65
2022-09-12T08:36:55.029Z,66.26
2022-09-12T08:39:23.590Z,65.93
2022-09-12T08:42:02.876Z,65.51
2022-09-12T08:45:03.512Z,64.85
2022-09-12T08:47:36.790Z,63.99
2022-09-12T08:50:16.404Z,63.29
2022-09-12T08:52:54.057Z,62.69
2022-09-12T08:55:33.199Z,62.01
2022-09-12T08:58:12.691Z,62.39
2022-09-12T09:00:56.120Z,62.23
2022-09-12T09:03:57.126Z,61.56
2022-09-12T09:06:47.116Z,62.32
2022-09-12T09:09:30.057Z,61.71
2022-09-12T09:12:08.825Z,61.34
2022-09-12T09:15:28.243Z,63.20
2022-09-12T09:18:04.131Z,63.31
2022-09-12T09:20:40.321Z,62.53
2022-09-12T09:23:15.950Z,63.03
2022-09-12T09:25:55.389Z,61.89
2022-09-12T09:28:32.197Z,62.49
2022-09-12T09:31:02.102Z,62.56
2022-09-12T09:33:36.047Z,62.16
2022-09-12T09:36:19.056Z,62.14
2022-09-12T09:38:51.403Z,60.61
2022-09-12T09:41:38.219Z,60.73
2022-09-12T09:46:41.040Z,59.86
2022-09-12T09:49:15.004Z,56.72
2022-09-12T09:51:44.436Z,57.31
2022-09-12T09:54:22.390Z,56.75
2022-09-12T09:56:51.102Z,56.04
2022-09-12T09:59:26.870Z,53.70
2022-09-12T10:02:02.048Z,54.55
2022-09-12T10:04:34.510Z,52.73
2022-09-12T10:07:05.889Z,52.96
2022-09-12T10:09:36.951Z,52.88
2022-09-12T10:12:26.131Z,53.52
2022-09-12T10:15:00.571Z,53.44
2022-09-12T10:17:40.351Z,53.51
2022-09-12T10:20:33.349Z,52.56
2022-09-12T10:23:21.365Z,51.07
2022-09-12T10:25:56.027Z,49.48
2022-09-12T10:28:32.309Z,46.96
2022-09-12T10:31:01.491Z,46.68
2022-09-12T10:33:31.669Z,46.46
2022-09-12T10:36:00.555Z,46.07
2022-09-12T10:38:34.378Z,45.90
2022-09-12T10:41:07.543Z,46.20
2022-09-12T10:43:39.472Z,46.19
2022-09-12T10:46:30.759Z,46.64
2022-09-12T10:49:29.013Z,48.33
2022-09-12T10:52:16.495Z,48.91
2022-09-12T10:54:44.630Z,48.65
2022-09-12T10:57:36.438Z,48.94
2022-09-12T11:00:15.400Z,47.22
2022-09-12T11:02:58.439Z,46.91
2022-09-12T11:05:46.968Z,46.73
2022-09-12T11:08:52.059Z,46.63
2022-09-12T11:11:45.923Z,46.71
2022-09-12T11:14:36.674Z,47.34
2022-09-12T11:17:26.132Z,46.08
2022-09-12T11:20:17.667Z,46.35
2022-09-12T11:23:26.605Z,45.71
2022-09-12T11:26:03.376Z,46.24
2022-09-12T11:28:49.750Z,46.69
2022-09-12T11:32:15.899Z,47.10
2022-09-12T11:35:01.250Z,47.57
2022-09-12T11:38:29.217Z,49.03
2022-09-12T11:41:03.464Z,49.33
2022-09-12T11:43:42.265Z,48.96
2022-09-12T11:46:22.067Z,49.65
2022-09-12T11:48:59.007Z,49.41
2022-09-12T11:51:33.991Z,49.54
2022-09-12T11:54:19.514Z,49.55
2022-09-12T11:56:51.886Z,48.93
2022-09-12T11:59:35.637Z,49.60
2022-09-12T12:02:11.963Z,49.27
2022-09-12T12:05:04.989Z,48.69
2022-09-12T12:07:45.576Z,49.18
2022-09-12T12:10:31.003Z,50.43
2022-09-12T12:13:01.971Z,46.69
2022-09-12T12:15:31.775Z,44.71
2022-09-12T12:18:07.120Z,44.93
2022-09-12T12:20:36.228Z,45.47
2022-09-12T12:23:05.380Z,45.31
2022-09-12T12:25:53.299Z,45.29
2022-09-12T12:29:00.390Z,45.42
2022-09-12T12:31:28.571Z,44.26
2022-09-12T12:34:18.525Z,43.99
2022-09-12T12:36:50.171Z,44.11
2022-09-12T12:40:05.849Z,43.91
2022-09-12T12:43:07.517Z,44.04
2022-09-12T12:46:03.768Z,44.88
2022-09-12T12:48:54.867Z,44.42
2022-09-12T12:51:57.770Z,43.50
2022-09-12T12:54:59.901Z,43.59
2022-09-12T12:57:38.872Z,43.68
2022-09-12T13:00:29.879Z,42.10
2022-09-12T13:03:03.267Z,42.28
2022-09-12T13:05:42.002Z,43.11
2022-09-12T13:08:26.810Z,43.14
2022-09-12T13:11:00.594Z,44.04
2022-09-12T13:13:34.667Z,43.71
2022-09-12T13:16:05.131Z,43.62
2022-09-12T13:18:46.458Z,43.52
2022-09-12T13:21:19.373Z,43.90
2022-09-12T13:24:02.529Z,43.63
2022-09-12T13:26:37.055Z,43.19
2022-09-12T13:29:12.604Z,43.68
2022-09-12T13:31:47.247Z,43.30
2022-09-12T13:34:22.828Z,42.99
2022-09-12T13:37:26.539Z,43.41
2022-09-12T13:40:11.766Z,43.03
2022-09-12T13:42:42.522Z,43.61
2022-09-12T13:45:21.131Z,43.76
2022-09-12T13:47:58.521Z,43.88
2022-09-12T13:50:32.056Z,44.14
2022-09-12T13:53:05.391Z,44.62
2022-09-12T13:55:38.127Z,43.62
2022-09-12T13:58:16.219Z,44.42
2022-09-12T14:00:45.025Z,45.17
2022-09-12T14:03:59.106Z,44.67
2022-09-12T14:06:28.236Z,44.42
2022-09-12T14:08:58.325Z,44.93
2022-09-12T14:11:30.625Z,44.57
2022-09-12T14:14:00.113Z,44.62
2022-09-12T14:16:28.903Z,45.14
2022-09-12T14:19:00.591Z,44.71
2022-09-12T14:21:36.820Z,44.83
2022-09-12T14:24:08.546Z,45.42
2022-09-12T14:26:40.497Z,45.56
2022-09-12T14:29:10.091Z,45.55
2022-09-12T14:31:41.288Z,45.72
2022-09-12T14:34:16.926Z,46.16
2022-09-12T14:36:48.779Z,46.26
2022-09-12T14:39:27.806Z,45.52
2022-09-12T14:42:07.312Z,46.05
2022-09-12T14:44:36.870Z,46.74
2022-09-12T14:47:20.536Z,46.42
2022-09-12T14:49:52.506Z,45.53
2022-09-12T14:52:29.505Z,45.45
2022-09-12T14:55:00.224Z,45.76
2022-09-12T14:57:40.018Z,45.81
2022-09-12T15:00:24.113Z,46.14
2022-09-12T15:02:53.874Z,45.97
2022-09-12T15:05:28.479Z,46.01
2022-09-12T15:08:00.484Z,45.88
2022-09-12T15:10:33.040Z,46.29
2022-09-12T15:13:20.249Z,46.68
2022-09-12T15:15:51.901Z,46.41
2022-09-12T15:18:21.374Z,46.33
2022-09-12T15:20:53.954Z,46.20
2022-09-12T15:23:36.727Z,47.00
2022-09-12T15:26:06.339Z,47.50
2022-09-12T15:28:35.478Z,48.12
2022-09-12T15:31:12.875Z,48.52
2022-09-12T15:33:41.031Z,48.81
2022-09-12T15:36:17.747Z,48.54
2022-09-12T15:38:47.012Z,48.86
2022-09-12T15:41:19.337Z,48.41
2022-09-12T15:43:47.929Z,48.43
2022-09-12T15:46:19.015Z,48.72
2022-09-12T15:48:47.585Z,48.38
2022-09-12T15:51:19.679Z,48.53
2022-09-12T15:53:49.552Z,49.45
2022-09-12T15:56:19.593Z,49.00
2022-09-12T15:58:58.717Z,48.74
2022-09-12T16:01:28.659Z,48.46
2022-09-12T16:03:57.332Z,48.50
2022-09-12T16:06:27.823Z,48.79
2022-09-12T16:08:56.417Z,48.38
2022-09-12T16:11:27.464Z,48.07
2022-09-12T16:13:58.061Z,47.91
2022-09-12T16:16:26.178Z,47.88
2022-09-12T16:18:54.213Z,47.70
2022-09-12T16:21:22.294Z,47.79
2022-09-12T16:23:51.940Z,47.88
2022-09-12T16:26:19.986Z,48.05
2022-09-12T16:28:48.173Z,47.79
2022-09-12T16:31:16.330Z,47.34
2022-09-12T16:33:44.288Z,47.48
2022-09-12T16:36:15.270Z,47.91
2022-09-12T16:38:44.371Z,48.15
2022-09-12T16:41:15.218Z,48.71
2022-09-12T16:43:43.767Z,49.77
2022-09-12T16:46:13.911Z,50.07
2022-09-12T16:48:49.549Z,50.27
2022-09-12T16:51:21.470Z,50.29
2022-09-12T16:53:50.599Z,50.09
2022-09-12T16:56:20.123Z,50.63
2022-09-12T16:58:49.248Z,51.30
2022-09-12T17:01:20.313Z,51.54
2022-09-12T17:03:48.732Z,51.48
2022-09-12T17:06:19.844Z,51.80
2022-09-12T17:08:51.913Z,52.57
2022-09-12T17:11:24.374Z,53.37
2022-09-12T17:14:11.015Z,54.35
2022-09-12T17:16:42.531Z,54.86
2022-09-12T17:19:17.166Z,55.66
2022-09-12T17:21:47.075Z,55.80
2022-09-12T17:24:15.955Z,56.47
2022-09-12T17:26:45.754Z,57.10
2022-09-12T17:29:14.779Z,57.52
2022-09-12T17:31:44.502Z,57.79
2022-09-12T17:34:14.309Z,58.66
2022-09-12T17:36:44.379Z,59.15
2022-09-12T17:39:13.757Z,59.62
2022-09-12T17:41:42.992Z,60.13
2022-09-12T17:44:15.802Z,60.85
2022-09-12T17:46:44.706Z,61.24
2022-09-12T17:49:16.064Z,61.99
2022-09-12T17:51:45.466Z,62.53
2022-09-12T17:54:16.652Z,62.98
2022-09-12T17:56:47.268Z,63.56
2022-09-12T17:59:19.664Z,63.64
2022-09-12T18:02:05.589Z,64.31
2022-09-12T18:04:33.745Z,64.71
2022-09-12T18:07:01.907Z,64.72
2022-09-12T18:09:30.675Z,65.07
2022-09-12T18:11:58.768Z,65.28
2022-09-12T18:14:29.533Z,65.11
2022-09-12T18:16:58.086Z,65.86
2022-09-12T18:19:26.616Z,66.01
2022-09-12T18:21:55.866Z,66.66
2022-09-12T18:24:24.451Z,67.04
2022-09-12T18:26:52.450Z,67.42
2022-09-12T18:29:20.926Z,67.73
2022-09-12T18:31:50.800Z,67.90
2022-09-12T18:34:19.555Z,68.01
2022-09-12T18:36:51.288Z,68.22
2022-09-12T18:39:21.972Z,68.46
2022-09-12T18:41:52.016Z,69.15
2022-09-12T18:44:20.185Z,69.43
2022-09-12T18:46:48.239Z,69.84
2022-09-12T18:49:18.443Z,70.29
2022-09-12T18:51:46.602Z,70.67
2022-09-12T18:54:15.395Z,70.64
2022-09-12T18:56:45.587Z,70.80
2022-09-12T18:59:14.787Z,70.97
2022-09-12T19:01:43.872Z,71.13
2022-09-12T19:04:14.379Z,71.16
2022-09-12T19:06:46.642Z,71.48
2022-09-12T19:09:20.536Z,71.33
2022-09-12T19:11:52.577Z,71.28
2022-09-12T19:14:23.889Z,71.61
2022-09-12T19:16:52.633Z,71.88
2022-09-12T19:19:21.171Z,71.98
2022-09-12T19:21:50.616Z,72.31
2022-09-12T19:24:18.747Z,72.30
2022-09-12T19:26:47.142Z,72.06
2022-09-12T19:29:16.683Z,72.06
2022-09-12T19:31:45.694Z,71.69
2022-09-12T19:34:14.597Z,71.60
2022-09-12T19:36:45.891Z,71.77
2022-09-12T19:39:17.857Z,71.87
2022-09-12T19:41:46.798Z,72.03
2022-09-12T19:44:14.868Z,72.01
2022-09-12T19:46:43.389Z,71.86
2022-09-12T19:49:13.076Z,72.04
2022-09-12T19:51:41.620Z,72.19
2022-09-12T19:54:09.901Z,72.20
2022-09-12T19:56:39.262Z,72.08
2022-09-12T19:59:07.438Z,72.12
2022-09-12T20:01:37.070Z,72.41
2022-09-12T20:04:06.703Z,72.01
2022-09-12T20:06:34.849Z,72.20
2022-09-12T20:09:03.132Z,71.94
2022-09-12T20:11:31.492Z,72.16
2022-09-12T20:14:01.042Z,72.20
2022-09-12T20:16:30.036Z,72.02
2022-09-12T20:19:02.072Z,71.94
2022-09-12T20:21:34.057Z,72.12
2022-09-12T20:24:05.563Z,71.86
2022-09-12T20:26:34.238Z,71.71
2022-09-12T20:29:05.309Z,71.33
2022-09-12T20:31:34.452Z,71.47
2022-09-12T20:34:02.651Z,71.38
2022-09-12T20:36:30.647Z,71.52
2022-09-12T20:39:01.438Z,71.68
2022-09-12T20:41:33.501Z,71.87
2022-09-12T20:44:03.126Z,71.74
2022-09-12T20:46:31.213Z,71.55
2022-09-12T20:48:59.464Z,71.71
2022-09-12T20:51:29.575Z,71.62
2022-09-12T20:53:59.539Z,71.62
2022-09-12T20:56:29.363Z,71.80
2022-09-12T20:58:58.067Z,71.64
2022-09-12T21:01:30.052Z,71.87
2022-09-12T21:04:00.103Z,71.50
2022-09-12T21:06:28.440Z,71.22
2022-09-12T21:08:59.724Z,70.67
2022-09-12T21:11:29.189Z,70.84
2022-09-12T21:13:58.268Z,71.07
2022-09-12T21:16:27.837Z,71.22
2022-09-12T21:18:58.238Z,71.20
2022-09-12T21:21:27.547Z,71.15
2022-09-12T21:23:59.777Z,70.90
2022-09-12T21:26:28.320Z,70.29
2022-09-12T21:28:56.434Z,70.41
2022-09-12T21:31:25.456Z,70.49
2022-09-12T21:33:54.842Z,70.52
2022-09-12T21:36:22.957Z,70.41
2022-09-12T21:38:51.067Z,70.53
2022-09-12T21:41:19.329Z,70.62
2022-09-12T21:43:47.572Z,70.71
2022-09-12T21:46:15.898Z,70.77
2022-09-12T21:48:44.491Z,70.85
2022-09-12T21:51:13.842Z,71.20
2022-09-12T21:53:42.361Z,71.36
2022-09-12T21:56:10.768Z,71.35
2022-09-12T21:58:39.309Z,71.55
2022-09-12T22:01:09.636Z,71.03
2022-09-12T22:03:37.776Z,71.30
2022-09-12T22:06:07.766Z,71.15
2022-09-12T22:08:38.861Z,71.44
2022-09-12T22:11:10.249Z,71.35
2022-09-12T22:13:42.003Z,71.62
2022-09-12T22:16:10.854Z,71.85
2022-09-12T22:18:39.177Z,71.71
2022-09-12T22:21:12.259Z,71.66
2022-09-12T22:23:59.279Z,71.94
2022-09-12T22:26:28.130Z,72.11
2022-09-12T22:28:56.444Z,72.12
2022-09-12T22:31:24.542Z,72.17
2022-09-12T22:33:52.564Z,72.26
2022-09-12T22:36:20.557Z,72.29
2022-09-12T22:38:50.060Z,72.51
2022-09-12T22:41:18.100Z,72.61
2022-09-12T22:43:46.245Z,72.50
2022-09-12T22:46:14.592Z,73.04
2022-09-12T22:48:42.885Z,73.38
2022-09-12T22:51:11.777Z,73.90
2022-09-12T22:53:40.514Z,74.06
2022-09-12T22:56:10.572Z,74.23
2022-09-12T22:58:38.627Z,74.60
2022-09-12T23:01:07.554Z,74.18
2022-09-12T23:03:36.354Z,74.40
2022-09-12T23:06:04.730Z,73.67
2022-09-12T23:08:32.978Z,73.50
2022-09-12T23:11:06.492Z,73.83
2022-09-12T23:13:36.111Z,74.54
2022-09-12T23:16:08.490Z,74.31
2022-09-12T23:18:37.660Z,74.60
2022-09-12T23:21:08.962Z,75.01
2022-09-12T23:23:37.812Z,75.01
2022-09-12T23:26:08.871Z,74.64
2022-09-12T23:28:39.052Z,75.08
2022-09-12T23:31:09.421Z,74.84
2022-09-12T23:33:37.831Z,75.21
2022-09-12T23:36:12.622Z,74.52
2022-09-12T23:38:42.146Z,74.03
2022-09-12T23:41:11.541Z,74.40
2022-09-12T23:43:42.891Z,74.52
2022-09-12T23:46:11.142Z,74.38
2022-09-12T23:48:39.549Z,74.58
2022-09-12T23:51:08.110Z,75.10
2022-09-12T23:53:36.563Z,74.97
2022-09-12T23:56:05.326Z,75.24
2022-09-12T23:58:34.103Z,75.79
